Time;durP1;ratioP1;P1;durP2;ratioP2;P2;SDS_P1;SDS_P2;PMS_P1;PMS_P2;Temp;Humidity;BMP_temperature;BMP_pressure;BME280_temperature;BME280_humidity;BME280_pressure;Samples;Min_cycle;Max_cycle;Signal;HPM_P1;HPM_P2
2023/01/29 02:28:21;;;;;;;2.03;1.93;;;;;;;-145.16;100.00;80537.46;653652;214;33401;-82
2023/01/29 10:08:40;;;;;;;4.30;2.73;;;;;;;-145.16;100.00;80066.92;645135;218;32786;-82
2023/01/29 14:01:58;;;;;;;3.10;2.80;;;;;;;-145.16;100.00;79683.09;653566;217;32382;-81
2023/01/29 14:07:40;;;;;;;4.57;3.03;;;;;;;-145.16;100.00;79693.16;648822;217;34661;-82
2023/01/29 14:13:31;;;;;;;6.27;4.93;;;;;;;-145.16;100.00;79686.11;648058;217;34350;-82
2023/01/29 14:19:47;;;;;;;4.87;3.30;;;;;;;-145.16;100.00;79704.23;644940;217;32429;-82
2023/01/29 14:25:32;;;;;;;4.43;4.03;;;;;;;-145.16;100.00;79716.33;645076;217;32479;-82
2023/01/29 14:31:14;;;;;;;5.20;3.47;;;;;;;-145.16;100.00;79713.30;643749;217;32433;-82
2023/01/29 14:36:55;;;;;;;5.90;4.83;;;;;;;-145.16;100.00;79728.42;642997;217;32717;-81
2023/01/29 14:42:40;;;;;;;8.20;4.80;;;;;;;-145.16;100.00;79722.38;644898;217;32454;-81
2023/01/29 14:48:24;;;;;;;6.23;4.93;;;;;;;-145.16;100.00;79734.46;644945;218;32366;-82
2023/01/29 14:54:10;;;;;;;8.03;4.87;;;;;;;-145.16;100.00;79727.41;645106;218;33450;-81
2023/01/29 14:59:54;;;;;;;8.57;5.37;;;;;;;-145.16;100.00;79713.30;653641;217;33497;-81
2023/01/29 15:05:35;;;;;;;6.67;4.87;;;;;;;-145.16;100.00;79711.29;645113;218;32395;-81
2023/01/29 15:11:35;;;;;;;6.73;3.97;;;;;;;-145.16;100.00;79708.27;645093;217;32491;-81
2023/01/29 15:17:27;;;;;;;9.50;5.77;;;;;;;-145.16;100.00;79727.41;645110;217;32525;-81
2023/01/29 15:23:08;;;;;;;7.23;4.87;;;;;;;-145.16;100.00;79709.28;645112;217;32443;-82
2023/01/29 15:28:49;;;;;;;7.97;5.13;;;;;;;-145.16;100.00;79699.20;653627;217;32413;-82
2023/01/29 15:34:31;;;;;;;4.57;2.33;;;;;;;-145.16;100.00;79675.02;645105;217;32493;-82
2023/01/29 15:40:12;;;;;;;4.60;3.00;;;;;;;-145.16;100.00;79689.13;645121;217;32464;-81
2023/01/29 15:45:58;;;;;;;4.47;3.43;;;;;;;-145.16;100.00;79682.08;645011;217;32438;-81
2023/01/29 15:51:40;;;;;;;7.47;4.60;;;;;;;-145.16;100.00;79689.13;645110;217;32492;-81
2023/01/29 15:57:21;;;;;;;2.27;1.60;;;;;;;-145.16;100.00;79691.14;645123;217;32356;-82
2023/01/29 16:03:02;;;;;;;6.23;4.73;;;;;;;-145.16;100.00;79710.28;645085;218;32703;-82
2023/01/29 16:08:43;;;;;;;9.73;5.60;;;;;;;-145.16;100.00;79708.27;645109;217;34394;-81
2023/01/29 16:14:25;;;;;;;8.10;5.47;;;;;;;-145.16;100.00;79723.38;645086;218;32486;-81
2023/01/29 16:20:06;;;;;;;8.13;5.27;;;;;;;-145.16;100.00;79710.28;645129;217;32511;-82
2023/01/29 16:25:47;;;;;;;7.90;4.70;;;;;;;-145.16;100.00;79720.36;645136;218;32541;-82
2023/01/29 16:31:30;;;;;;;5.70;3.97;;;;;;;-145.16;100.00;79724.39;645147;218;32468;-82
2023/01/29 16:37:13;;;;;;;3.93;2.67;;;;;;;-145.16;100.00;79730.43;644967;217;32448;-82
2023/01/29 16:42:57;;;;;;;4.53;3.07;;;;;;;-145.16;100.00;79741.52;645098;217;32416;-81
2023/01/29 16:48:39;;;;;;;7.23;5.10;;;;;;;-145.16;100.00;79756.63;645118;217;32737;-81
2023/01/29 16:54:22;;;;;;;6.60;4.57;;;;;;;-145.16;100.00;79763.67;653638;217;32412;-81
2023/01/29 17:00:02;;;;;;;4.20;3.60;;;;;;;-145.16;100.00;79756.63;653587;217;32424;-81
2023/01/29 17:05:43;;;;;;;4.23;3.33;;;;;;;-145.16;100.00;79763.67;652637;217;32491;-81
2023/01/29 17:11:28;;;;;;;7.43;4.50;;;;;;;-145.16;100.00;79768.71;645112;217;33671;-81
2023/01/29 17:17:10;;;;;;;5.47;4.47;;;;;;;-145.16;100.00;79783.83;645133;218;32482;-81
2023/01/29 17:22:51;;;;;;;4.00;2.73;;;;;;;-145.16;100.00;79770.73;653630;217;33503;-81
2023/01/29 17:28:33;;;;;;;5.60;2.23;;;;;;;-145.16;100.00;79763.67;647744;217;33699;-81
2023/01/29 17:34:14;;;;;;;3.87;2.90;;;;;;;-145.16;100.00;79755.62;645117;217;33439;-81
2023/01/29 17:39:56;;;;;;;4.53;3.97;;;;;;;-145.16;100.00;79765.69;653630;217;32492;-81
2023/01/29 17:45:37;;;;;;;11.50;5.63;;;;;;;-145.16;100.00;79760.66;645110;217;32454;-82
2023/01/29 17:51:20;;;;;;;9.63;5.00;;;;;;;-145.16;100.00;79727.41;645006;217;34372;-81
2023/01/29 17:57:03;;;;;;;5.23;3.10;;;;;;;-145.16;100.00;79708.27;653603;218;33410;-81
2023/01/29 18:02:45;;;;;;;9.97;6.07;;;;;;;-145.16;100.00;79720.36;644746;217;32503;-81
2023/01/29 18:08:26;;;;;;;9.03;4.33;;;;;;;-145.16;100.00;79717.34;645107;217;32441;-81
2023/01/29 18:14:08;;;;;;;4.60;3.70;;;;;;;-145.16;100.00;79699.20;645083;218;32477;-81
2023/01/29 18:19:49;;;;;;;5.43;4.00;;;;;;;-145.16;100.00;79713.30;649038;218;32492;-81
2023/01/29 18:25:31;;;;;;;5.27;3.73;;;;;;;-145.16;100.00;79698.19;634092;217;32628;-82
2023/01/29 18:31:12;;;;;;;7.00;5.60;;;;;;;-145.16;100.00;79688.13;641544;217;32469;-81
2023/01/29 18:36:53;;;;;;;9.20;5.67;;;;;;;-145.16;100.00;79713.30;637137;218;33658;-81
2023/01/29 18:42:34;;;;;;;6.07;3.73;;;;;;;-145.16;100.00;79672.00;644486;217;33385;-81
2023/01/29 18:48:16;;;;;;;3.83;3.00;;;;;;;-145.16;100.00;79672.00;639575;217;33607;-82
2023/01/29 18:53:57;;;;;;;7.93;4.33;;;;;;;-145.16;100.00;79688.13;640068;217;32615;-81
2023/01/29 18:59:39;;;;;;;7.13;5.03;;;;;;;-145.16;100.00;79685.09;644851;217;32676;-81
2023/01/29 19:05:22;;;;;;;9.00;5.00;;;;;;;-145.16;100.00;79692.15;642161;217;34617;-82
2023/01/29 19:11:04;;;;;;;4.53;3.97;;;;;;;-145.16;100.00;79652.86;638864;218;32607;-81
2023/01/29 19:16:42;;;;;;;8.20;5.13;;;;;;;-145.16;100.00;79650.84;636105;217;33643;-81
2023/01/29 19:22:24;;;;;;;8.63;6.00;;;;;;;-145.16;100.00;79642.78;645069;217;32525;-81
2023/01/29 19:28:05;;;;;;;4.67;4.27;;;;;;;-145.16;100.00;79648.83;653621;217;32494;-82
2023/01/29 19:33:47;;;;;;;8.73;5.67;;;;;;;-145.16;100.00;79625.66;640449;217;32670;-81
2023/01/29 19:39:32;;;;;;;9.57;4.80;;;;;;;-145.16;100.00;79620.63;642506;217;32476;-81
2023/01/29 19:45:09;;;;;;;7.30;4.20;;;;;;;-145.16;100.00;79611.56;645078;217;34461;-81
2023/01/29 19:50:56;;;;;;;7.37;5.33;;;;;;;-145.16;100.00;79622.64;644004;217;32576;-81
2023/01/29 19:56:37;;;;;;;7.17;5.17;;;;;;;-145.16;100.00;79604.51;653652;217;33672;-81
2023/01/29 20:02:19;;;;;;;8.03;4.40;;;;;;;-145.16;100.00;79600.48;653631;217;32511;-81
2023/01/29 20:08:00;;;;;;;10.27;6.97;;;;;;;-145.16;100.00;79609.55;636358;217;32701;-81
2023/01/29 20:13:41;;;;;;;7.80;4.63;;;;;;;-145.16;100.00;79584.36;645126;217;33435;-81
2023/01/29 20:19:23;;;;;;;8.63;4.87;;;;;;;-145.16;100.00;79593.42;649249;217;32566;-81
2023/01/29 20:25:04;;;;;;;6.10;5.03;;;;;;;-145.16;100.00;79598.47;640947;218;32679;-81
2023/01/29 20:30:46;;;;;;;10.50;7.07;;;;;;;-145.16;100.00;79579.33;645100;217;32507;-81
2023/01/29 20:36:27;;;;;;;4.67;3.37;;;;;;;-145.16;100.00;79570.26;653623;217;32506;-81
2023/01/29 20:42:08;;;;;;;9.00;4.83;;;;;;;-145.16;100.00;79566.23;645111;218;32510;-81
2023/01/29 20:47:52;;;;;;;10.27;5.77;;;;;;;-145.16;100.00;79577.31;644915;217;32501;-81
2023/01/29 20:53:33;;;;;;;4.97;3.77;;;;;;;-145.16;100.00;79561.19;645122;217;32490;-82
2023/01/29 20:59:14;;;;;;;8.47;5.53;;;;;;;-145.16;100.00;79572.27;645142;217;32496;-81
2023/01/29 21:04:57;;;;;;;11.43;5.83;;;;;;;-145.16;100.00;79560.19;644977;217;32530;-81
2023/01/29 21:10:39;;;;;;;7.93;6.10;;;;;;;-145.16;100.00;79550.11;645115;217;32523;-82
2023/01/29 21:16:20;;;;;;;10.30;6.47;;;;;;;-145.16;100.00;79542.05;653617;217;32753;-81
2023/01/29 21:22:02;;;;;;;9.23;6.33;;;;;;;-145.16;100.00;79537.02;645110;217;32511;-81
2023/01/29 21:27:43;;;;;;;8.87;5.70;;;;;;;-145.16;100.00;79525.94;653592;218;32463;-81
2023/01/29 21:33:25;;;;;;;6.10;4.40;;;;;;;-145.16;100.00;79522.91;645104;218;32434;-81
2023/01/29 21:39:16;;;;;;;3.80;3.40;;;;;;;-145.16;100.00;79502.77;645113;217;32459;-81
2023/01/29 21:44:57;;;;;;;9.63;5.73;;;;;;;-145.16;100.00;79488.66;653628;217;32527;-81
2023/01/29 21:50:39;;;;;;;8.43;3.80;;;;;;;-145.16;100.00;79477.58;645100;217;32523;-81
2023/01/29 21:56:20;;;;;;;6.13;4.13;;;;;;;-145.16;100.00;79483.63;645096;217;33507;-81
2023/01/29 22:02:01;;;;;;;5.97;4.50;;;;;;;-145.16;100.00;79452.40;653620;217;33442;-81
2023/01/29 22:07:43;;;;;;;13.70;7.10;;;;;;;-145.16;100.00;79466.50;645113;217;32541;-81
2023/01/29 22:13:24;;;;;;;10.43;6.37;;;;;;;-145.16;100.00;79425.20;653630;217;33425;-81
2023/01/29 22:19:08;;;;;;;6.03;3.93;;;;;;;-145.16;100.00;79391.95;645127;217;32773;-81
2023/01/29 22:24:51;;;;;;;10.00;5.17;;;;;;;-145.16;100.00;79375.84;653624;217;32510;-81
2023/01/29 22:30:31;;;;;;;11.03;7.10;;;;;;;-145.16;100.00;79402.03;645101;217;32783;-81
2023/01/29 22:36:12;;;;;;;7.17;6.17;;;;;;;-145.16;100.00;79390.95;645134;217;32557;-81
2023/01/29 22:41:55;;;;;;;6.83;4.70;;;;;;;-145.16;100.00;79387.93;645112;217;33663;-81
2023/01/29 22:47:37;;;;;;;6.33;4.97;;;;;;;-145.16;100.00;79394.98;645116;217;33449;-81
2023/01/29 22:53:18;;;;;;;10.00;6.23;;;;;;;-145.16;100.00;79360.73;653590;217;32499;-81
2023/01/29 22:59:06;;;;;;;8.83;6.27;;;;;;;-145.16;100.00;79361.73;645139;217;32850;-81
2023/01/29 23:04:48;;;;;;;7.20;5.57;;;;;;;-145.16;100.00;79329.51;645119;217;32759;-81
2023/01/29 23:10:29;;;;;;;8.40;6.07;;;;;;;-145.16;100.00;79316.41;646233;218;32499;-81
2023/01/29 23:16:10;;;;;;;9.83;6.30;;;;;;;-145.16;100.00;79320.44;653648;217;32435;-81
2023/01/29 23:21:52;;;;;;;5.80;3.30;;;;;;;-145.16;100.00;79279.14;653626;217;32402;-82
2023/01/29 23:27:35;;;;;;;11.00;6.07;;;;;;;-145.16;100.00;79265.04;644981;217;32447;-81
2023/01/29 23:33:17;;;;;;;10.60;5.30;;;;;;;-145.16;100.00;79234.82;653653;217;34402;-81
2023/01/29 23:38:59;;;;;;;7.30;5.33;;;;;;;-145.16;100.00;79237.84;653620;217;32476;-82
2023/01/29 23:44:40;;;;;;;4.13;3.77;;;;;;;-145.16;100.00;79202.59;645110;217;32444;-81
2023/01/29 23:50:21;;;;;;;10.10;4.50;;;;;;;-145.16;100.00;79180.43;645107;217;33459;-81
2023/01/29 23:56:03;;;;;;;8.63;6.43;;;;;;;-145.16;100.00;79175.39;645064;217;32460;-81
